createdAt,value
2016-04-25T00:00:51.575Z,0
2016-04-25T00:01:51.312Z,0
2016-04-25T00:02:57.832Z,0
2016-04-25T00:03:45.066Z,0
2016-04-25T00:04:45.710Z,0
2016-04-25T00:05:45.730Z,0
2016-04-25T00:06:44.404Z,0
2016-04-25T00:07:45.124Z,0
2016-04-25T00:08:45.190Z,0
2016-04-25T00:09:45.129Z,0
2016-04-25T00:10:51.430Z,0
2016-04-25T00:11:51.668Z,0
2016-04-25T00:12:44.779Z,0
2016-04-25T00:13:46.609Z,0
2016-04-25T00:14:45.175Z,0
2016-04-25T00:15:48.271Z,0
2016-04-25T00:16:45.634Z,0
2016-04-25T00:17:45.246Z,0
2016-04-25T00:18:45.842Z,0
2016-04-25T00:19:51.594Z,0
2016-04-25T00:20:45.269Z,0
2016-04-25T00:22:04.461Z,0
2016-04-25T00:22:45.889Z,0
2016-04-25T00:23:45.314Z,0
2016-04-25T00:24:46.723Z,0
2016-04-25T00:25:46.742Z,0
2016-04-25T00:26:45.337Z,0
2016-04-25T00:27:45.965Z,0
2016-04-25T00:28:45.375Z,0
2016-04-25T00:29:45.423Z,0
2016-04-25T00:30:51.709Z,0
2016-04-25T00:31:45.414Z,0
2016-04-25T00:32:45.401Z,0
2016-04-25T00:33:45.435Z,0
2016-04-25T00:34:51.703Z,0
2016-04-25T00:35:46.894Z,0
2016-04-25T00:36:45.442Z,0
2016-04-25T00:37:45.478Z,0
2016-04-25T00:38:44.855Z,0
2016-04-25T00:39:45.467Z,0
2016-04-25T00:40:45.547Z,0
2016-04-25T00:41:46.941Z,0
2016-04-25T00:42:58.916Z,0
2016-04-25T00:43:58.293Z,0
2016-04-25T00:44:45.621Z,0
2016-04-25T00:45:45.577Z,0
2016-04-25T00:46:45.579Z,0
2016-04-25T00:47:45.598Z,0
2016-04-25T00:48:47.038Z,0
2016-04-25T00:49:51.885Z,0
2016-04-25T00:50:45.699Z,0
2016-04-25T00:51:44.983Z,0
2016-04-25T00:52:53.376Z,0
2016-04-25T00:53:46.286Z,0
2016-04-25T00:54:46.273Z,0
2016-04-25T00:55:45.666Z,0
2016-04-25T00:56:47.137Z,0
2016-04-25T00:57:59.034Z,0
2016-04-25T00:58:45.690Z,0
2016-04-25T01:00:55.289Z,0
2016-04-25T01:01:55.291Z,0
2016-04-25T01:02:55.325Z,0
2016-04-25T01:03:55.298Z,0
2016-04-25T01:04:55.315Z,0
2016-04-25T01:06:01.680Z,0
2016-04-25T01:06:54.602Z,0
2016-04-25T01:07:55.511Z,0
2016-04-25T01:08:55.373Z,0
2016-04-25T01:09:55.376Z,0
2016-04-25T01:10:55.378Z,0
2016-04-25T01:12:02.711Z,0
2016-04-25T01:13:01.683Z,0
2016-04-25T01:13:55.449Z,0
2016-04-25T01:15:08.172Z,0
2016-04-25T01:15:56.876Z,0
2016-04-25T01:16:54.847Z,0
2016-04-25T01:18:08.213Z,0
2016-04-25T01:18:55.744Z,0
2016-04-25T01:20:14.686Z,0
2016-04-25T01:21:03.204Z,0
2016-04-25T01:21:55.532Z,0
2016-04-25T01:22:58.648Z,0
2016-04-25T01:23:55.554Z,0
2016-04-25T01:25:08.309Z,0
2016-04-25T01:25:55.606Z,0
2016-04-25T01:26:55.593Z,0
2016-04-25T01:28:02.333Z,0
2016-04-25T01:28:55.599Z,0
2016-04-25T01:29:55.617Z,0
2016-04-25T01:30:55.635Z,0
2016-04-25T01:31:55.638Z,0
2016-04-25T01:33:01.925Z,0
2016-04-25T01:33:55.659Z,0
2016-04-25T01:35:58.776Z,0
2016-04-25T01:36:58.764Z,0
2016-04-25T01:37:59.375Z,0
2016-04-25T01:38:59.191Z,0
2016-04-25T01:39:58.881Z,0
2016-04-25T01:41:11.556Z,0
2016-04-25T01:42:00.589Z,0
2016-04-25T01:42:58.591Z,0
2016-04-25T01:43:58.829Z,0
2016-04-25T01:45:11.597Z,0
2016-04-25T01:45:59.506Z,0
2016-04-25T01:47:18.041Z,0
2016-04-25T01:47:58.259Z,0
2016-04-25T01:49:55.874Z,0
2016-04-25T01:50:11.471Z,0
2016-04-25T01:51:08.473Z,0
2016-04-25T01:52:27.663Z,0
2016-04-25T01:53:08.494Z,0
2016-04-25T01:54:08.466Z,0
2016-04-25T01:55:08.499Z,0
2016-04-25T01:56:14.783Z,0
2016-04-25T01:57:08.582Z,0
2016-04-25T01:58:09.195Z,0
2016-04-25T01:59:14.963Z,0
2016-04-25T02:00:27.747Z,0
2016-04-25T02:01:08.641Z,0
2016-04-25T02:02:08.596Z,0
2016-04-25T02:03:14.834Z,0
2016-04-25T02:04:10.023Z,0
2016-04-25T02:05:08.714Z,0
2016-04-25T02:06:11.623Z,0
2016-04-25T02:07:14.907Z,0
2016-04-25T02:08:08.628Z,0
2016-04-25T02:09:21.303Z,0
2016-04-25T02:10:08.664Z,0
2016-04-25T02:11:08.684Z,0
2016-04-25T02:12:08.670Z,0
2016-04-25T02:13:08.391Z,0
2016-04-25T02:14:08.925Z,0
2016-04-25T02:15:08.709Z,0
2016-04-25T02:16:08.947Z,0
2016-04-25T02:17:21.496Z,0
2016-04-25T02:18:08.764Z,0
2016-04-25T02:19:21.485Z,0
2016-04-25T02:20:08.801Z,0
2016-04-25T02:21:08.789Z,0
2016-04-25T02:22:10.197Z,0
2016-04-25T02:23:08.824Z,0
2016-04-25T02:24:08.827Z,0
2016-04-25T02:25:08.829Z,0
2016-04-25T02:26:08.833Z,0
2016-04-25T02:27:15.742Z,0
2016-04-25T02:28:09.275Z,0
2016-04-25T02:29:10.419Z,0
2016-04-25T02:30:21.609Z,0
2016-04-25T02:31:21.612Z,0
2016-04-25T02:32:28.130Z,0
2016-04-25T02:33:28.133Z,0
2016-04-25T02:34:08.918Z,0
2016-04-25T02:36:11.531Z,0
2016-04-25T02:36:49.765Z,0
2016-04-25T02:37:24.112Z,0
2016-04-25T02:38:55.427Z,0
2016-04-25T02:39:24.727Z,0
2016-04-25T02:40:54.715Z,0
2016-04-25T02:41:36.889Z,0
2016-04-25T02:42:24.032Z,0
2016-04-25T02:44:27.162Z,0
2016-04-25T02:45:27.212Z,0
2016-04-25T02:46:26.575Z,0
2016-04-25T02:47:27.842Z,0
2016-04-25T02:48:27.220Z,0
2016-04-25T02:49:40.005Z,0
2016-04-25T02:50:27.053Z,0
2016-04-25T02:51:27.260Z,0
2016-04-25T02:52:27.263Z,0
2016-04-25T02:53:40.015Z,0
2016-04-25T02:54:27.314Z,0
2016-04-25T02:55:52.941Z,0
2016-04-25T02:56:27.914Z,0
2016-04-25T02:57:27.322Z,0
2016-04-25T02:58:41.341Z,0
2016-04-25T02:59:27.344Z,0
2016-04-25T03:00:40.096Z,0
2016-04-25T03:01:27.380Z,0
2016-04-25T03:02:27.414Z,0
2016-04-25T03:03:27.246Z,0
2016-04-25T03:04:27.451Z,0
2016-04-25T03:05:40.140Z,0
2016-04-25T03:06:27.504Z,0
2016-04-25T03:07:30.474Z,0
2016-04-25T03:08:27.445Z,0
2016-04-25T03:10:36.826Z,0
2016-04-25T03:11:30.704Z,0
2016-04-25T03:12:30.941Z,0
2016-04-25T03:13:31.287Z,0
2016-04-25T03:14:36.962Z,0
2016-04-25T03:15:30.699Z,0
2016-04-25T03:16:36.889Z,0
2016-04-25T03:17:36.892Z,0
2016-04-25T03:18:37.113Z,0
2016-04-25T03:19:43.382Z,0
2016-04-25T03:20:30.681Z,0
2016-04-25T03:21:49.746Z,0
2016-04-25T03:22:31.264Z,0
2016-04-25T03:23:30.721Z,0
2016-04-25T03:24:30.738Z,0
2016-04-25T03:25:43.429Z,0
2016-04-25T03:26:36.994Z,0
2016-04-25T03:27:30.732Z,0
2016-04-25T03:28:49.671Z,0
2016-04-25T03:29:30.737Z,0
2016-04-25T03:31:22.226Z,0
2016-04-25T03:31:34.788Z,0
2016-04-25T03:33:06.089Z,0
2016-04-25T03:33:34.997Z,0
2016-04-25T03:34:34.860Z,0
2016-04-25T03:35:34.878Z,0
2016-04-25T03:36:35.068Z,0
2016-04-25T03:37:41.149Z,0
2016-04-25T03:38:35.104Z,0
2016-04-25T03:39:54.310Z,0
2016-04-25T03:40:41.187Z,0
2016-04-25T03:42:00.581Z,0
2016-04-25T03:42:34.928Z,0
2016-04-25T03:43:35.353Z,0
2016-04-25T03:44:34.948Z,0
2016-04-25T03:45:34.983Z,0
2016-04-25T03:46:34.986Z,0
2016-04-25T03:47:35.020Z,0
2016-04-25T03:48:47.756Z,0
2016-04-25T03:49:41.416Z,0
2016-04-25T03:50:54.231Z,0
2016-04-25T03:51:47.749Z,0
2016-04-25T03:53:32.005Z,5
2016-04-25T03:53:44.630Z,5
2016-04-25T03:54:57.304Z,5
2016-04-25T03:55:57.338Z,5
2016-04-25T03:56:44.653Z,5
2016-04-25T03:58:10.674Z,5
2016-04-25T03:58:45.377Z,5
2016-04-25T03:59:44.660Z,5
2016-04-25T04:00:44.788Z,10
2016-04-25T04:01:44.667Z,10
2016-04-25T04:02:50.966Z,10
2016-04-25T04:03:44.734Z,10
2016-04-25T04:04:44.706Z,10
2016-04-25T04:05:44.912Z,15
2016-04-25T04:06:44.727Z,15
2016-04-25T04:07:57.339Z,15
2016-04-25T04:08:44.670Z,20
2016-04-25T04:09:46.188Z,20
2016-04-25T04:10:51.035Z,20
2016-04-25T04:11:57.506Z,25
2016-04-25T04:12:45.492Z,25
2016-04-25T04:14:04.120Z,25
2016-04-25T04:14:44.827Z,25
2016-04-25T04:16:47.645Z,30
2016-04-25T04:17:25.881Z,30
2016-04-25T04:18:00.256Z,30
2016-04-25T04:19:00.259Z,35
2016-04-25T04:20:12.999Z,35
2016-04-25T04:21:01.077Z,40
2016-04-25T04:22:00.143Z,40
2016-04-25T04:23:07.255Z,40
2016-04-25T04:24:06.617Z,45
2016-04-25T04:25:00.306Z,45
2016-04-25T04:26:13.155Z,50
2016-04-25T04:27:00.186Z,50
2016-04-25T04:28:01.409Z,55
2016-04-25T04:29:01.130Z,55
2016-04-25T04:30:00.367Z,55
2016-04-25T04:31:01.213Z,60
2016-04-25T04:32:01.060Z,60
2016-04-25T04:33:01.843Z,65
2016-04-25T04:34:01.019Z,70
2016-04-25T04:35:00.443Z,75
2016-04-25T04:36:00.493Z,75
2016-04-25T04:37:13.185Z,80
2016-04-25T04:38:01.185Z,85
2016-04-25T04:40:10.190Z,90
2016-04-25T04:40:35.474Z,90
2016-04-25T04:41:22.774Z,90
2016-04-25T04:43:14.920Z,100
2016-04-25T04:43:28.232Z,100
2016-04-25T04:45:24.472Z,105
2016-04-25T04:45:37.050Z,105
2016-04-25T04:47:39.665Z,110
2016-04-25T04:48:17.903Z,110
2016-04-25T04:48:52.246Z,115
2016-04-25T04:50:49.845Z,115
2016-04-25T04:51:02.564Z,120
2016-04-25T04:52:21.664Z,125
2016-04-25T04:53:15.181Z,130
2016-04-25T04:55:17.811Z,140
2016-04-25T04:55:30.389Z,140
2016-04-25T04:57:27.192Z,150
2016-04-25T04:57:39.755Z,150
2016-04-25T04:58:46.476Z,160
2016-04-25T04:59:40.197Z,160
2016-04-25T05:00:59.013Z,160
2016-04-25T05:01:46.156Z,160
2016-04-25T05:02:39.877Z,165
2016-04-25T05:03:39.818Z,170
2016-04-25T05:04:39.852Z,170
2016-04-25T05:05:52.574Z,170
2016-04-25T05:06:40.076Z,170
2016-04-25T05:08:31.331Z,180
2016-04-25T05:08:56.643Z,180
2016-04-25T05:11:24.996Z,175
2016-04-25T05:11:59.168Z,175
2016-04-25T05:14:06.674Z,160
2016-04-25T05:15:07.050Z,160
2016-04-25T05:16:18.674Z,170
2016-04-25T05:17:18.745Z,175
2016-04-25T05:18:56.530Z,185
2016-04-25T05:20:06.094Z,195
2016-04-25T05:20:47.129Z,195
2016-04-25T05:21:18.710Z,200
2016-04-25T05:22:18.704Z,210
2016-04-25T05:23:20.166Z,250
2016-04-25T05:24:18.769Z,335
2016-04-25T05:25:20.183Z,440
2016-04-25T05:26:20.207Z,545
2016-04-25T05:27:18.852Z,560
2016-04-25T05:28:18.810Z,430
2016-04-25T05:29:18.783Z,360
2016-04-25T05:30:18.883Z,340
2016-04-25T05:31:18.918Z,355
2016-04-25T05:32:18.921Z,405
2016-04-25T05:33:18.925Z,425
2016-04-25T05:34:18.991Z,455
2016-04-25T05:35:18.995Z,520
2016-04-25T05:36:18.998Z,645
2016-04-25T05:37:20.424Z,775
2016-04-25T05:38:19.004Z,735
2016-04-25T05:39:19.023Z,730
2016-04-25T05:40:19.104Z,810
2016-04-25T05:41:19.061Z,945
2016-04-25T05:42:19.078Z,955
2016-04-25T05:43:32.223Z,995
2016-04-25T05:44:18.694Z,995
2016-04-25T05:45:19.086Z,890
2016-04-25T05:46:19.136Z,870
2016-04-25T05:47:19.311Z,1020
2016-04-25T05:48:19.189Z,995
2016-04-25T05:49:25.567Z,1010
2016-04-25T05:50:19.194Z,1060
2016-04-25T05:51:19.180Z,965
2016-04-25T05:52:19.231Z,920
2016-04-25T05:53:19.296Z,870
2016-04-25T05:54:19.891Z,850
2016-04-25T05:55:19.302Z,915
2016-04-25T05:56:19.304Z,995
2016-04-25T05:57:19.354Z,1085
2016-04-25T05:58:19.622Z,1025
2016-04-25T05:59:19.593Z,1070
2016-04-25T06:00:19.737Z,1080
2016-04-25T06:01:19.910Z,1005
2016-04-25T06:02:22.711Z,970
2016-04-25T06:03:19.932Z,970
2016-04-25T06:04:32.215Z,1245
2016-04-25T06:05:19.688Z,1220
2016-04-25T06:06:19.768Z,1250
2016-04-25T06:07:19.381Z,1270
2016-04-25T06:08:25.852Z,1280
2016-04-25T06:09:19.807Z,1260
2016-04-25T06:10:19.654Z,1240
2016-04-25T06:11:19.812Z,1220
2016-04-25T06:12:19.722Z,1235
2016-04-25T06:13:20.725Z,1265
2016-04-25T06:14:19.728Z,1285
2016-04-25T06:15:19.948Z,1295
2016-04-25T06:16:19.780Z,1330
2016-04-25T06:17:19.126Z,1385
2016-04-25T06:18:19.816Z,1450
2016-04-25T06:19:19.944Z,1450
2016-04-25T06:20:19.884Z,1440
2016-04-25T06:21:19.183Z,1410
2016-04-25T06:22:32.672Z,1380
2016-04-25T06:23:19.987Z,1345
2016-04-25T06:24:32.692Z,1365
2016-04-25T06:25:20.023Z,1295
2016-04-25T06:26:20.183Z,1430
2016-04-25T06:27:20.076Z,1535
2016-04-25T06:28:25.688Z,1510
2016-04-25T06:29:20.019Z,1440
2016-04-25T06:30:20.037Z,1315
2016-04-25T06:31:20.164Z,1220
2016-04-25T06:32:20.199Z,1080
2016-04-25T06:33:20.248Z,1140
2016-04-25T06:34:20.266Z,1195
2016-04-25T06:35:20.379Z,1195
2016-04-25T06:36:20.303Z,1160
2016-04-25T06:37:26.618Z,1165
2016-04-25T06:38:20.372Z,1120
2016-04-25T06:39:20.357Z,1185
2016-04-25T06:40:33.158Z,1170
2016-04-25T06:41:20.473Z,1165
2016-04-25T06:42:20.476Z,1170
2016-04-25T06:43:28.681Z,1185
2016-04-25T06:44:21.325Z,1165
2016-04-25T06:45:20.562Z,1145
2016-04-25T06:46:20.596Z,1200
2016-04-25T06:47:20.614Z,1230
2016-04-25T06:48:20.618Z,1245
2016-04-25T06:49:20.634Z,1305
2016-04-25T06:50:33.419Z,1240
2016-04-25T06:51:20.765Z,1240
2016-04-25T06:52:20.737Z,1280
2016-04-25T06:53:20.786Z,1370
2016-04-25T06:54:20.790Z,1390
2016-04-25T06:55:20.854Z,1315
2016-04-25T06:56:20.935Z,1265
2016-04-25T06:57:20.891Z,1310
2016-04-25T06:58:22.909Z,1270
2016-04-25T06:59:22.006Z,1275
2016-04-25T07:00:20.962Z,1240
2016-04-25T07:01:20.980Z,1200
2016-04-25T07:02:21.013Z,1070
2016-04-25T07:03:21.032Z,1075
2016-04-25T07:04:21.081Z,1075
2016-04-25T07:05:21.100Z,1160
2016-04-25T07:06:21.119Z,1130
2016-04-25T07:07:21.152Z,1105
2016-04-25T07:08:21.358Z,1085
2016-04-25T07:09:21.220Z,1230
2016-04-25T07:10:22.691Z,1300
2016-04-25T07:11:21.866Z,1300
2016-04-25T07:12:34.494Z,1420
2016-04-25T07:13:21.027Z,1250
2016-04-25T07:15:17.671Z,1155
2016-04-25T07:15:55.955Z,1185
2016-04-25T07:16:43.020Z,1070
2016-04-25T07:17:32.929Z,1115
2016-04-25T07:19:40.247Z,940
2016-04-25T07:20:52.781Z,875
2016-04-25T07:21:41.252Z,830
2016-04-25T07:22:40.926Z,730
2016-04-25T07:23:52.836Z,735
2016-04-25T07:24:40.104Z,665
2016-04-25T07:25:40.185Z,590
2016-04-25T07:26:53.203Z,565
2016-04-25T07:27:52.987Z,560
2016-04-25T07:28:40.553Z,550
2016-04-25T07:30:49.839Z,485
2016-04-25T07:32:09.045Z,460
2016-04-25T07:32:49.876Z,445
2016-04-25T07:33:49.863Z,425
2016-04-25T07:34:49.991Z,405
2016-04-25T07:35:56.228Z,390
2016-04-25T07:36:49.949Z,390
2016-04-25T07:37:51.405Z,385
2016-04-25T07:38:50.001Z,380
2016-04-25T07:39:50.239Z,380
2016-04-25T07:41:02.772Z,380
2016-04-25T07:41:50.260Z,375
2016-04-25T07:43:09.418Z,375
2016-04-25T07:43:50.233Z,375
2016-04-25T07:45:15.829Z,365
2016-04-25T07:45:51.021Z,355
2016-04-25T07:47:21.541Z,345
2016-04-25T07:48:02.947Z,345
2016-04-25T07:48:50.215Z,340
2016-04-25T07:50:09.468Z,320
2016-04-25T07:50:50.268Z,325
2016-04-25T07:52:52.899Z,310
2016-04-25T07:53:05.508Z,315
2016-04-25T07:54:05.635Z,315
2016-04-25T07:55:06.138Z,300
2016-04-25T07:56:05.548Z,300
2016-04-25T07:57:05.550Z,295
2016-04-25T07:58:05.630Z,290
2016-04-25T07:59:06.071Z,300
2016-04-25T08:00:11.917Z,315
2016-04-25T08:01:06.248Z,330
2016-04-25T08:02:18.407Z,350
2016-04-25T08:03:05.909Z,355
2016-04-25T08:04:25.009Z,335
2016-04-25T08:05:05.743Z,330
2016-04-25T08:07:08.342Z,310
2016-04-25T08:07:21.014Z,310
2016-04-25T08:08:21.033Z,285
2016-04-25T08:09:28.678Z,245
2016-04-25T08:10:21.006Z,225
2016-04-25T08:11:46.887Z,185
2016-04-25T08:12:21.037Z,175
2016-04-25T08:13:21.055Z,175
2016-04-25T08:14:21.792Z,195
2016-04-25T08:15:22.498Z,220
2016-04-25T08:16:21.094Z,250
2016-04-25T08:17:21.127Z,270
2016-04-25T08:18:21.131Z,260
2016-04-25T08:19:21.774Z,255
2016-04-25T08:20:21.183Z,230
2016-04-25T08:21:34.000Z,200
2016-04-25T08:22:20.892Z,195
2016-04-25T08:23:40.429Z,200
2016-04-25T08:24:28.119Z,205
2016-04-25T08:26:36.453Z,220
2016-04-25T08:27:55.705Z,175
2016-04-25T08:28:37.989Z,175
2016-04-25T08:29:37.164Z,170
2016-04-25T08:30:39.386Z,175
2016-04-25T08:31:44.231Z,225
2016-04-25T08:32:37.219Z,220
2016-04-25T08:33:49.424Z,180
2016-04-25T08:34:36.647Z,185
2016-04-25T08:35:36.727Z,140
2016-04-25T08:36:49.402Z,220
2016-04-25T08:37:36.638Z,225
2016-04-25T08:38:36.672Z,210
2016-04-25T08:39:36.691Z,265
2016-04-25T08:40:49.417Z,220
2016-04-25T08:41:36.716Z,245
2016-04-25T08:43:02.329Z,265
2016-04-25T08:43:42.971Z,240
2016-04-25T08:45:08.038Z,245
2016-04-25T08:45:36.790Z,235
2016-04-25T08:46:36.824Z,205
2016-04-25T08:47:36.811Z,230
2016-04-25T08:48:37.048Z,220
2016-04-25T08:49:36.848Z,240
2016-04-25T08:50:36.912Z,205
2016-04-25T08:51:36.900Z,155
2016-04-25T08:52:37.137Z,150
2016-04-25T08:53:36.936Z,160
2016-04-25T08:54:36.986Z,155
2016-04-25T08:55:37.551Z,200
2016-04-25T08:56:43.225Z,230
2016-04-25T08:57:37.009Z,220
2016-04-25T08:58:44.684Z,195
2016-04-25T08:59:49.781Z,220
2016-04-25T09:00:37.049Z,215
2016-04-25T09:01:37.067Z,250
2016-04-25T09:02:37.085Z,290
2016-04-25T09:03:37.197Z,300
2016-04-25T09:04:38.560Z,295
2016-04-25T09:05:37.141Z,295
2016-04-25T09:06:49.893Z,285
2016-04-25T09:07:37.193Z,295
2016-04-25T09:08:50.227Z,245
2016-04-25T09:09:38.621Z,260
2016-04-25T09:10:50.185Z,240
2016-04-25T09:11:49.969Z,210
2016-04-25T09:12:56.518Z,190
2016-04-25T09:14:07.474Z,200
2016-04-25T09:15:02.837Z,205
2016-04-25T09:17:46.599Z,270
2016-04-25T09:18:46.680Z,340
2016-04-25T09:19:46.729Z,395
2016-04-25T09:20:46.763Z,365
2016-04-25T09:21:53.125Z,355
2016-04-25T09:22:53.066Z,360
2016-04-25T09:23:46.755Z,300
2016-04-25T09:24:59.602Z,315
2016-04-25T09:25:46.854Z,355
2016-04-25T09:26:47.045Z,365
2016-04-25T09:27:53.141Z,365
2016-04-25T09:28:53.785Z,285
2016-04-25T09:29:53.224Z,270
2016-04-25T09:31:06.165Z,255
2016-04-25T09:31:46.917Z,235
2016-04-25T09:33:38.267Z,275
2016-04-25T09:33:50.876Z,285
2016-04-25T09:34:50.894Z,335
2016-04-25T09:35:51.600Z,330
2016-04-25T09:36:51.525Z,315
2016-04-25T09:37:51.153Z,260
2016-04-25T09:38:50.936Z,200
2016-04-25T09:39:51.142Z,185
2016-04-25T09:40:57.254Z,190
2016-04-25T09:41:51.163Z,205
2016-04-25T09:42:51.025Z,245
2016-04-25T09:43:57.434Z,240
2016-04-25T09:44:57.624Z,255
2016-04-25T09:46:03.799Z,235
2016-04-25T09:47:03.880Z,235
2016-04-25T09:48:03.836Z,255
2016-04-25T09:49:03.963Z,245
2016-04-25T09:49:51.138Z,175
2016-04-25T09:50:51.172Z,125
2016-04-25T09:51:51.377Z,120
2016-04-25T09:52:51.240Z,145
2016-04-25T09:53:51.226Z,175
2016-04-25T09:54:51.245Z,190
2016-04-25T09:55:51.451Z,185
2016-04-25T09:56:51.313Z,210
2016-04-25T09:57:57.596Z,350
2016-04-25T09:59:55.337Z,540
2016-04-25T10:00:54.637Z,620
2016-04-25T10:01:54.654Z,640
2016-04-25T10:02:55.267Z,600
2016-04-25T10:03:55.284Z,515
2016-04-25T10:05:07.443Z,430
2016-04-25T10:05:55.290Z,390
2016-04-25T10:08:04.123Z,320
2016-04-25T10:08:57.892Z,290
2016-04-25T10:09:57.879Z,205
2016-04-25T10:10:57.914Z,185
2016-04-25T10:12:04.197Z,180
2016-04-25T10:12:58.636Z,240
2016-04-25T10:14:13.578Z,285
2016-04-25T10:14:57.378Z,285
2016-04-25T10:15:57.989Z,285
2016-04-25T10:16:58.586Z,245
2016-04-25T10:18:04.291Z,215
2016-04-25T10:19:08.435Z,165
2016-04-25T10:19:58.516Z,195
2016-04-25T10:21:10.816Z,260
2016-04-25T10:21:58.724Z,270
2016-04-25T10:22:58.195Z,300
2016-04-25T10:23:59.198Z,260
2016-04-25T10:24:58.216Z,275
2016-04-25T10:27:01.253Z,230
2016-04-25T10:28:20.490Z,190
2016-04-25T10:29:01.305Z,195
2016-04-25T10:30:01.418Z,185
2016-04-25T10:31:07.614Z,150
2016-04-25T10:32:07.725Z,140
2016-04-25T10:33:14.181Z,125
2016-04-25T10:34:07.527Z,110
2016-04-25T10:35:19.254Z,125
2016-04-25T10:36:01.527Z,110
2016-04-25T10:37:01.248Z,90
2016-04-25T10:38:01.548Z,85
2016-04-25T10:39:07.489Z,95
2016-04-25T10:40:01.554Z,120
2016-04-25T10:41:01.510Z,150
2016-04-25T10:42:01.559Z,155
2016-04-25T10:43:08.420Z,165
2016-04-25T10:44:05.158Z,140
2016-04-25T10:45:15.051Z,90
2016-04-25T10:46:02.211Z,75
2016-04-25T10:47:27.400Z,60
2016-04-25T10:48:03.028Z,55
2016-04-25T10:49:32.331Z,65
2016-04-25T10:50:03.097Z,65
2016-04-25T10:51:01.880Z,75
2016-04-25T10:52:02.383Z,65
2016-04-25T10:53:02.385Z,60
2016-04-25T10:54:14.497Z,70
2016-04-25T10:55:14.484Z,60
2016-04-25T10:56:01.785Z,60
2016-04-25T10:57:21.677Z,65
2016-04-25T10:58:01.821Z,70
2016-04-25T10:59:03.245Z,65
2016-04-25T11:00:02.280Z,75
2016-04-25T11:01:14.579Z,75
2016-04-25T11:02:01.847Z,70
2016-04-25T11:03:21.193Z,70
2016-04-25T11:04:14.681Z,75
2016-04-25T11:05:01.949Z,80
2016-04-25T11:06:21.186Z,90
2016-04-25T11:07:02.532Z,95
2016-04-25T11:08:01.957Z,100
2016-04-25T11:09:15.038Z,115
2016-04-25T11:10:01.415Z,115
2016-04-25T11:11:27.700Z,100
2016-04-25T11:12:02.015Z,90
2016-04-25T11:13:02.064Z,95
2016-04-25T11:14:08.910Z,90
2016-04-25T11:15:03.976Z,90
2016-04-25T11:16:21.431Z,90
2016-04-25T11:17:05.184Z,95
2016-04-25T11:19:11.690Z,100
2016-04-25T11:20:11.739Z,125
2016-04-25T11:21:11.742Z,130
2016-04-25T11:22:24.511Z,145
2016-04-25T11:23:11.778Z,150
2016-04-25T11:24:37.549Z,155
2016-04-25T11:25:12.362Z,160
2016-04-25T11:26:43.071Z,195
2016-04-25T11:27:24.602Z,220
2016-04-25T11:28:11.839Z,235
2016-04-25T11:29:37.813Z,245
2016-04-25T11:30:24.594Z,260
2016-04-25T11:31:43.178Z,320
2016-04-25T11:32:11.882Z,310
2016-04-25T11:33:11.899Z,190
2016-04-25T11:34:11.746Z,145
2016-04-25T11:35:24.701Z,140
2016-04-25T11:36:11.954Z,150
2016-04-25T11:37:24.707Z,150
2016-04-25T11:38:12.022Z,155
2016-04-25T11:39:11.993Z,175
2016-04-25T11:40:12.543Z,175
2016-04-25T11:41:24.748Z,175
2016-04-25T11:42:13.470Z,150
2016-04-25T11:43:31.303Z,150
2016-04-25T11:44:12.100Z,150
2016-04-25T11:46:20.950Z,165
2016-04-25T11:48:14.272Z,245
2016-04-25T11:48:33.124Z,230
2016-04-25T11:49:26.139Z,215
2016-04-25T11:51:30.099Z,170
2016-04-25T11:52:42.655Z,150
2016-04-25T11:53:30.702Z,145
2016-04-25T11:54:30.079Z,170
2016-04-25T11:55:30.738Z,175
2016-04-25T11:56:36.682Z,180
2016-04-25T11:57:30.119Z,175
2016-04-25T11:58:50.546Z,145
2016-04-25T11:59:31.281Z,170
2016-04-25T12:01:27.208Z,215
2016-04-25T12:02:05.289Z,235
2016-04-25T12:02:39.807Z,270
2016-04-25T12:03:39.857Z,290
2016-04-25T12:04:52.562Z,270
2016-04-25T12:05:52.581Z,235
2016-04-25T12:06:59.161Z,230
2016-04-25T12:07:52.648Z,225
2016-04-25T12:09:05.605Z,215
2016-04-25T12:09:40.561Z,195
2016-04-25T12:11:05.610Z,145
2016-04-25T12:11:41.425Z,135
2016-04-25T12:12:39.975Z,140
2016-04-25T12:13:59.289Z,125
2016-04-25T12:14:53.277Z,120
2016-04-25T12:15:40.013Z,110
2016-04-25T12:16:59.219Z,100
2016-04-25T12:17:40.660Z,105
2016-04-25T12:18:52.788Z,105
2016-04-25T12:19:40.213Z,120
2016-04-25T12:21:43.186Z,145
2016-04-25T12:22:43.221Z,135
2016-04-25T12:23:43.207Z,175
2016-04-25T12:24:43.491Z,165
2016-04-25T12:25:50.151Z,175
2016-04-25T12:26:43.543Z,185
2016-04-25T12:27:56.031Z,225
2016-04-25T12:28:43.377Z,230
2016-04-25T12:30:02.833Z,260
2016-04-25T12:30:43.976Z,265
2016-04-25T12:31:43.354Z,250
2016-04-25T12:33:02.560Z,235
2016-04-25T12:33:43.359Z,230
2016-04-25T12:35:46.177Z,180
2016-04-25T12:35:58.770Z,175
2016-04-25T12:36:58.820Z,165
2016-04-25T12:37:58.761Z,160
2016-04-25T12:39:00.216Z,175
2016-04-25T12:40:00.250Z,150
2016-04-25T12:41:11.691Z,115
2016-04-25T12:42:11.584Z,80
2016-04-25T12:43:12.352Z,60
2016-04-25T12:44:17.933Z,40
2016-04-25T12:45:13.545Z,40
2016-04-25T12:46:24.594Z,45
2016-04-25T12:48:05.116Z,50
2016-04-25T12:49:18.055Z,50
2016-04-25T12:50:05.747Z,45
2016-04-25T12:51:05.155Z,45
2016-04-25T12:52:05.157Z,40
2016-04-25T12:53:17.894Z,45
2016-04-25T12:54:05.772Z,50
2016-04-25T12:55:24.446Z,70
2016-04-25T12:56:05.857Z,85
2016-04-25T12:57:36.645Z,140
2016-04-25T12:58:11.773Z,165
2016-04-25T12:59:31.510Z,250
2016-04-25T13:00:24.653Z,320
2016-04-25T13:01:36.593Z,385
2016-04-25T13:02:05.299Z,425
2016-04-25T13:04:18.382Z,600
2016-04-25T13:05:05.542Z,620
2016-04-25T13:06:05.262Z,630
2016-04-25T13:07:06.000Z,620
2016-04-25T13:08:05.440Z,570
2016-04-25T13:09:05.428Z,580
2016-04-25T13:10:06.070Z,615
2016-04-25T13:11:11.823Z,565
2016-04-25T13:12:05.670Z,525
2016-04-25T13:13:18.250Z,480
2016-04-25T13:14:05.924Z,465
2016-04-25T13:15:24.475Z,525
2016-04-25T13:16:11.806Z,550
2016-04-25T13:17:31.221Z,575
2016-04-25T13:18:18.302Z,565
2016-04-25T13:19:36.914Z,565
2016-04-25T13:20:31.276Z,530
2016-04-25T13:21:05.685Z,505
2016-04-25T13:22:05.500Z,485
2016-04-25T13:23:11.925Z,485
2016-04-25T13:24:12.037Z,475
2016-04-25T13:25:05.742Z,475
2016-04-25T13:26:05.792Z,510
2016-04-25T13:27:05.779Z,525
2016-04-25T13:28:05.750Z,525
2016-04-25T13:29:11.894Z,525
2016-04-25T13:30:05.694Z,510
2016-04-25T13:31:12.087Z,475
2016-04-25T13:32:05.855Z,445
2016-04-25T13:33:25.405Z,420
2016-04-25T13:34:12.127Z,395
2016-04-25T13:36:21.085Z,345
2016-04-25T13:37:21.259Z,330
2016-04-25T13:38:33.841Z,300
2016-04-25T13:39:21.296Z,315
2016-04-25T13:40:40.346Z,335
2016-04-25T13:41:21.224Z,330
2016-04-25T13:43:18.197Z,370
2016-04-25T13:43:30.885Z,375
2016-04-25T13:45:23.250Z,320
2016-04-25T13:45:35.844Z,305
2016-04-25T13:47:38.457Z,230
2016-04-25T13:47:51.382Z,220
2016-04-25T13:48:51.104Z,210
2016-04-25T13:49:51.982Z,205
2016-04-25T13:50:51.157Z,220
2016-04-25T13:52:04.065Z,250
2016-04-25T13:53:03.943Z,195
2016-04-25T13:53:51.320Z,150
2016-04-25T13:55:10.339Z,150
2016-04-25T13:55:51.264Z,175
2016-04-25T13:56:51.859Z,225
2016-04-25T13:57:52.050Z,300
2016-04-25T13:59:04.022Z,335
2016-04-25T14:00:04.572Z,360
2016-04-25T14:01:04.215Z,435
2016-04-25T14:01:51.300Z,485
2016-04-25T14:03:16.975Z,510
2016-04-25T14:04:04.072Z,495
2016-04-25T14:05:22.777Z,420
2016-04-25T14:06:17.108Z,380
2016-04-25T14:09:06.600Z,280
2016-04-25T14:10:06.650Z,275
2016-04-25T14:11:19.871Z,295
2016-04-25T14:12:07.390Z,320
2016-04-25T14:13:26.064Z,305
2016-04-25T14:14:06.724Z,295
2016-04-25T14:16:29.979Z,265
2016-04-25T14:16:42.666Z,260
2016-04-25T14:18:42.586Z,250
2016-04-25T14:19:42.743Z,220
2016-04-25T14:20:42.774Z,200
2016-04-25T14:21:49.180Z,190
2016-04-25T14:22:43.162Z,180
2016-04-25T14:23:42.938Z,175
2016-04-25T14:24:49.304Z,180
2016-04-25T14:25:55.790Z,170
2016-04-25T14:26:43.056Z,165
2016-04-25T14:27:43.075Z,155
2016-04-25T14:28:43.106Z,150
2016-04-25T14:29:43.396Z,140
2016-04-25T14:30:43.186Z,135
2016-04-25T14:31:43.147Z,120
2016-04-25T14:32:43.219Z,100
2016-04-25T14:33:43.695Z,90
2016-04-25T14:34:43.450Z,80